sensor_id;sensor_type;location;lat;lon;timestamp;temperature;humidity
57242;DHT22;43095;53.302;5.786;2023-09-12T00:01:24;18.90;94.30
57242;DHT22;43095;53.302;5.786;2023-09-12T00:03:51;18.90;94.40
57242;DHT22;43095;53.302;5.786;2023-09-12T00:06:18;18.90;94.50
57242;DHT22;43095;53.302;5.786;2023-09-12T00:08:45;18.90;94.40
57242;DHT22;43095;53.302;5.786;2023-09-12T00:11:13;18.90;94.50
57242;DHT22;43095;53.302;5.786;2023-09-12T00:13:40;18.90;94.60
57242;DHT22;43095;53.302;5.786;2023-09-12T00:16:08;18.80;94.60
57242;DHT22;43095;53.302;5.786;2023-09-12T00:18:39;18.80;94.60
57242;DHT22;43095;53.302;5.786;2023-09-12T00:21:07;18.80;94.70
57242;DHT22;43095;53.302;5.786;2023-09-12T00:23:34;18.80;94.70
57242;DHT22;43095;53.302;5.786;2023-09-12T00:26:06;18.70;94.70
57242;DHT22;43095;53.302;5.786;2023-09-12T00:28:33;18.70;94.80
57242;DHT22;43095;53.302;5.786;2023-09-12T00:31:01;18.70;94.90
57242;DHT22;43095;53.302;5.786;2023-09-12T00:33:28;18.70;95.00
57242;DHT22;43095;53.302;5.786;2023-09-12T00:35:58;18.70;95.00
57242;DHT22;43095;53.302;5.786;2023-09-12T00:38:25;18.60;95.10
57242;DHT22;43095;53.302;5.786;2023-09-12T00:40:52;18.60;95.20
57242;DHT22;43095;53.302;5.786;2023-09-12T00:43:21;18.60;95.30
57242;DHT22;43095;53.302;5.786;2023-09-12T00:45:51;18.60;95.40
57242;DHT22;43095;53.302;5.786;2023-09-12T00:48:20;18.60;95.40
57242;DHT22;43095;53.302;5.786;2023-09-12T00:50:51;18.50;95.50
57242;DHT22;43095;53.302;5.786;2023-09-12T00:53:19;18.50;95.60
57242;DHT22;43095;53.302;5.786;2023-09-12T00:55:55;18.50;95.70
57242;DHT22;43095;53.302;5.786;2023-09-12T00:58:24;18.50;95.80
57242;DHT22;43095;53.302;5.786;2023-09-12T01:00:52;18.50;96.00
57242;DHT22;43095;53.302;5.786;2023-09-12T01:03:19;18.40;95.90
57242;DHT22;43095;53.302;5.786;2023-09-12T01:05:47;18.40;95.90
57242;DHT22;43095;53.302;5.786;2023-09-12T01:08:15;18.40;96.00
57242;DHT22;43095;53.302;5.786;2023-09-12T01:10:43;18.40;96.10
57242;DHT22;43095;53.302;5.786;2023-09-12T01:13:14;18.40;96.20
57242;DHT22;43095;53.302;5.786;2023-09-12T01:15:41;18.30;96.40
57242;DHT22;43095;53.302;5.786;2023-09-12T01:18:08;18.30;96.40
57242;DHT22;43095;53.302;5.786;2023-09-12T01:20:36;18.30;96.40
57242;DHT22;43095;53.302;5.786;2023-09-12T01:29:17;18.30;96.60
57242;DHT22;43095;53.302;5.786;2023-09-12T01:31:46;18.20;96.50
57242;DHT22;43095;53.302;5.786;2023-09-12T01:34:13;18.20;96.50
57242;DHT22;43095;53.302;5.786;2023-09-12T01:36:41;18.20;96.50
57242;DHT22;43095;53.302;5.786;2023-09-12T01:39:12;18.20;96.50
57242;DHT22;43095;53.302;5.786;2023-09-12T01:41:42;18.20;96.60
57242;DHT22;43095;53.302;5.786;2023-09-12T01:44:16;18.10;96.60
57242;DHT22;43095;53.302;5.786;2023-09-12T01:46:48;18.10;96.60
57242;DHT22;43095;53.302;5.786;2023-09-12T01:49:19;18.10;96.60
57242;DHT22;43095;53.302;5.786;2023-09-12T01:51:48;18.00;96.60
57242;DHT22;43095;53.302;5.786;2023-09-12T01:54:19;18.00;96.60
57242;DHT22;43095;53.302;5.786;2023-09-12T01:56:47;18.00;96.70
57242;DHT22;43095;53.302;5.786;2023-09-12T01:59:17;18.00;96.70
57242;DHT22;43095;53.302;5.786;2023-09-12T02:01:44;18.00;96.80
57242;DHT22;43095;53.302;5.786;2023-09-12T02:04:11;18.00;96.80
57242;DHT22;43095;53.302;5.786;2023-09-12T02:06:42;18.00;96.70
57242;DHT22;43095;53.302;5.786;2023-09-12T02:09:09;17.90;96.70
57242;DHT22;43095;53.302;5.786;2023-09-12T02:11:36;17.90;96.70
57242;DHT22;43095;53.302;5.786;2023-09-12T02:14:03;17.80;96.70
57242;DHT22;43095;53.302;5.786;2023-09-12T02:16:31;17.80;96.70
57242;DHT22;43095;53.302;5.786;2023-09-12T02:19:01;17.80;96.60
57242;DHT22;43095;53.302;5.786;2023-09-12T02:21:28;17.80;96.50
57242;DHT22;43095;53.302;5.786;2023-09-12T02:23:55;17.70;96.50
57242;DHT22;43095;53.302;5.786;2023-09-12T02:26:22;17.60;96.50
57242;DHT22;43095;53.302;5.786;2023-09-12T02:28:52;17.60;96.50
57242;DHT22;43095;53.302;5.786;2023-09-12T02:31:19;17.50;96.50
57242;DHT22;43095;53.302;5.786;2023-09-12T02:33:47;17.50;96.40
57242;DHT22;43095;53.302;5.786;2023-09-12T02:36:14;17.50;96.30
57242;DHT22;43095;53.302;5.786;2023-09-12T02:38:42;17.40;96.20
57242;DHT22;43095;53.302;5.786;2023-09-12T02:41:09;17.40;96.20
57242;DHT22;43095;53.302;5.786;2023-09-12T02:43:36;17.40;96.30
57242;DHT22;43095;53.302;5.786;2023-09-12T02:46:03;17.30;96.40
57242;DHT22;43095;53.302;5.786;2023-09-12T02:48:31;17.30;96.40
57242;DHT22;43095;53.302;5.786;2023-09-12T02:50:58;17.20;96.50
57242;DHT22;43095;53.302;5.786;2023-09-12T02:53:25;17.20;96.60
57242;DHT22;43095;53.302;5.786;2023-09-12T02:55:52;17.20;96.70
57242;DHT22;43095;53.302;5.786;2023-09-12T02:58:21;17.20;96.80
57242;DHT22;43095;53.302;5.786;2023-09-12T03:00:48;17.20;96.90
57242;DHT22;43095;53.302;5.786;2023-09-12T03:03:17;17.30;96.90
57242;DHT22;43095;53.302;5.786;2023-09-12T03:05:45;17.20;97.00
57242;DHT22;43095;53.302;5.786;2023-09-12T03:08:12;17.20;97.10
57242;DHT22;43095;53.302;5.786;2023-09-12T03:10:39;17.20;97.20
57242;DHT22;43095;53.302;5.786;2023-09-12T03:13:06;17.20;97.10
57242;DHT22;43095;53.302;5.786;2023-09-12T03:15:36;17.20;97.10
57242;DHT22;43095;53.302;5.786;2023-09-12T03:18:07;17.10;97.10
57242;DHT22;43095;53.302;5.786;2023-09-12T03:20:40;17.00;97.00
57242;DHT22;43095;53.302;5.786;2023-09-12T03:23:08;17.00;97.00
57242;DHT22;43095;53.302;5.786;2023-09-12T03:25:39;17.00;97.10
57242;DHT22;43095;53.302;5.786;2023-09-12T03:28:07;16.90;97.10
57242;DHT22;43095;53.302;5.786;2023-09-12T03:30:36;16.90;97.20
57242;DHT22;43095;53.302;5.786;2023-09-12T03:33:05;16.80;97.40
57242;DHT22;43095;53.302;5.786;2023-09-12T03:35:34;16.80;97.40
57242;DHT22;43095;53.302;5.786;2023-09-12T03:38:02;16.80;97.40
57242;DHT22;43095;53.302;5.786;2023-09-12T03:40:30;16.70;97.50
57242;DHT22;43095;53.302;5.786;2023-09-12T03:42:58;16.70;97.70
57242;DHT22;43095;53.302;5.786;2023-09-12T03:45:26;16.70;97.80
57242;DHT22;43095;53.302;5.786;2023-09-12T03:47:53;16.70;97.80
57242;DHT22;43095;53.302;5.786;2023-09-12T03:50:20;16.60;97.80
57242;DHT22;43095;53.302;5.786;2023-09-12T03:52:48;16.60;97.90
57242;DHT22;43095;53.302;5.786;2023-09-12T03:55:15;16.50;98.00
57242;DHT22;43095;53.302;5.786;2023-09-12T03:57:43;16.50;98.10
57242;DHT22;43095;53.302;5.786;2023-09-12T04:00:11;16.50;98.00
57242;DHT22;43095;53.302;5.786;2023-09-12T04:02:43;16.50;98.00
57242;DHT22;43095;53.302;5.786;2023-09-12T04:05:10;16.50;98.10
57242;DHT22;43095;53.302;5.786;2023-09-12T04:07:37;16.50;98.20
57242;DHT22;43095;53.302;5.786;2023-09-12T04:10:05;16.40;98.20
57242;DHT22;43095;53.302;5.786;2023-09-12T04:12:32;16.40;98.20
57242;DHT22;43095;53.302;5.786;2023-09-12T04:14:59;16.40;98.20
57242;DHT22;43095;53.302;5.786;2023-09-12T04:17:26;16.40;98.30
57242;DHT22;43095;53.302;5.786;2023-09-12T04:19:53;16.40;98.30
57242;DHT22;43095;53.302;5.786;2023-09-12T04:22:21;16.30;98.30
57242;DHT22;43095;53.302;5.786;2023-09-12T04:24:50;16.30;98.40
57242;DHT22;43095;53.302;5.786;2023-09-12T04:27:17;16.20;98.50
57242;DHT22;43095;53.302;5.786;2023-09-12T04:29:44;16.20;98.60
57242;DHT22;43095;53.302;5.786;2023-09-12T04:32:11;16.20;98.80
57242;DHT22;43095;53.302;5.786;2023-09-12T04:34:41;16.20;98.90
57242;DHT22;43095;53.302;5.786;2023-09-12T04:37:12;16.20;98.90
57242;DHT22;43095;53.302;5.786;2023-09-12T04:39:39;16.20;99.00
57242;DHT22;43095;53.302;5.786;2023-09-12T04:42:07;16.20;99.10
57242;DHT22;43095;53.302;5.786;2023-09-12T04:44:35;16.20;99.10
57242;DHT22;43095;53.302;5.786;2023-09-12T04:47:03;16.20;99.20
57242;DHT22;43095;53.302;5.786;2023-09-12T04:49:31;16.20;99.20
57242;DHT22;43095;53.302;5.786;2023-09-12T04:51:59;16.20;99.40
57242;DHT22;43095;53.302;5.786;2023-09-12T04:54:27;16.20;99.50
57242;DHT22;43095;53.302;5.786;2023-09-12T04:56:55;16.20;99.50
57242;DHT22;43095;53.302;5.786;2023-09-12T04:59:22;16.20;99.50
57242;DHT22;43095;53.302;5.786;2023-09-12T05:01:50;16.20;99.50
57242;DHT22;43095;53.302;5.786;2023-09-12T05:04:17;16.20;99.50
57242;DHT22;43095;53.302;5.786;2023-09-12T05:06:45;16.20;99.40
57242;DHT22;43095;53.302;5.786;2023-09-12T05:09:12;16.20;99.40
57242;DHT22;43095;53.302;5.786;2023-09-12T05:11:39;16.20;99.40
57242;DHT22;43095;53.302;5.786;2023-09-12T05:14:07;16.20;99.40
57242;DHT22;43095;53.302;5.786;2023-09-12T05:16:34;16.20;99.40
57242;DHT22;43095;53.302;5.786;2023-09-12T05:19:01;16.30;99.50
57242;DHT22;43095;53.302;5.786;2023-09-12T05:21:30;16.40;99.60
57242;DHT22;43095;53.302;5.786;2023-09-12T05:23:57;16.40;99.70
57242;DHT22;43095;53.302;5.786;2023-09-12T05:26:24;16.40;99.90
57242;DHT22;43095;53.302;5.786;2023-09-12T05:28:51;16.50;99.90
57242;DHT22;43095;53.302;5.786;2023-09-12T05:31:19;16.50;99.90
57242;DHT22;43095;53.302;5.786;2023-09-12T05:33:47;16.60;99.90
57242;DHT22;43095;53.302;5.786;2023-09-12T05:36:15;16.60;99.90
57242;DHT22;43095;53.302;5.786;2023-09-12T05:38:43;16.60;99.90
57242;DHT22;43095;53.302;5.786;2023-09-12T05:41:11;16.70;99.90
57242;DHT22;43095;53.302;5.786;2023-09-12T05:43:40;16.60;99.90
57242;DHT22;43095;53.302;5.786;2023-09-12T05:46:07;16.70;99.90
57242;DHT22;43095;53.302;5.786;2023-09-12T05:48:34;16.70;99.90
57242;DHT22;43095;53.302;5.786;2023-09-12T05:51:02;16.70;99.90
57242;DHT22;43095;53.302;5.786;2023-09-12T05:53:29;16.80;99.90
57242;DHT22;43095;53.302;5.786;2023-09-12T05:55:57;16.80;99.90
57242;DHT22;43095;53.302;5.786;2023-09-12T05:58:24;16.80;99.90
57242;DHT22;43095;53.302;5.786;2023-09-12T06:00:52;16.80;99.90
57242;DHT22;43095;53.302;5.786;2023-09-12T06:03:21;16.90;99.90
57242;DHT22;43095;53.302;5.786;2023-09-12T06:05:48;16.90;99.90
57242;DHT22;43095;53.302;5.786;2023-09-12T06:08:16;17.00;99.90
57242;DHT22;43095;53.302;5.786;2023-09-12T06:10:43;17.00;99.90
57242;DHT22;43095;53.302;5.786;2023-09-12T06:13:10;17.00;99.90
57242;DHT22;43095;53.302;5.786;2023-09-12T06:15:39;17.10;99.90
57242;DHT22;43095;53.302;5.786;2023-09-12T06:18:08;17.20;99.90
57242;DHT22;43095;53.302;5.786;2023-09-12T06:20:36;17.20;99.90
57242;DHT22;43095;53.302;5.786;2023-09-12T06:23:03;17.20;99.90
57242;DHT22;43095;53.302;5.786;2023-09-12T06:25:31;17.30;99.90
57242;DHT22;43095;53.302;5.786;2023-09-12T06:27:58;17.40;99.90
57242;DHT22;43095;53.302;5.786;2023-09-12T06:30:25;17.40;99.90
57242;DHT22;43095;53.302;5.786;2023-09-12T06:32:52;17.50;99.90
57242;DHT22;43095;53.302;5.786;2023-09-12T06:35:20;17.50;99.90
57242;DHT22;43095;53.302;5.786;2023-09-12T06:37:47;17.60;99.90
57242;DHT22;43095;53.302;5.786;2023-09-12T06:40:14;17.60;99.90
57242;DHT22;43095;53.302;5.786;2023-09-12T06:42:42;17.80;99.90
57242;DHT22;43095;53.302;5.786;2023-09-12T06:45:10;17.80;99.90
57242;DHT22;43095;53.302;5.786;2023-09-12T06:47:37;17.90;99.90
57242;DHT22;43095;53.302;5.786;2023-09-12T06:50:05;18.00;99.90
57242;DHT22;43095;53.302;5.786;2023-09-12T06:52:40;18.10;99.90
57242;DHT22;43095;53.302;5.786;2023-09-12T06:55:07;18.20;99.90
57242;DHT22;43095;53.302;5.786;2023-09-12T06:57:34;18.40;99.90
57242;DHT22;43095;53.302;5.786;2023-09-12T07:00:02;18.40;99.90
57242;DHT22;43095;53.302;5.786;2023-09-12T07:02:33;18.50;99.90
57242;DHT22;43095;53.302;5.786;2023-09-12T07:05:00;18.60;99.90
57242;DHT22;43095;53.302;5.786;2023-09-12T07:07:31;18.70;99.90
57242;DHT22;43095;53.302;5.786;2023-09-12T07:09:59;18.80;99.90
57242;DHT22;43095;53.302;5.786;2023-09-12T07:12:46;18.90;99.90
57242;DHT22;43095;53.302;5.786;2023-09-12T07:15:13;19.00;99.90
57242;DHT22;43095;53.302;5.786;2023-09-12T07:17:41;19.10;99.90
57242;DHT22;43095;53.302;5.786;2023-09-12T07:20:08;19.20;99.90
57242;DHT22;43095;53.302;5.786;2023-09-12T07:22:39;19.30;99.90
57242;DHT22;43095;53.302;5.786;2023-09-12T07:25:09;19.40;99.90
57242;DHT22;43095;53.302;5.786;2023-09-12T07:27:38;19.50;99.90
57242;DHT22;43095;53.302;5.786;2023-09-12T07:30:10;19.50;99.90
57242;DHT22;43095;53.302;5.786;2023-09-12T07:32:37;19.60;99.90
57242;DHT22;43095;53.302;5.786;2023-09-12T07:35:05;19.70;99.90
57242;DHT22;43095;53.302;5.786;2023-09-12T07:37:32;19.70;99.90
57242;DHT22;43095;53.302;5.786;2023-09-12T07:39:59;19.80;99.90
57242;DHT22;43095;53.302;5.786;2023-09-12T07:42:26;19.90;99.90
57242;DHT22;43095;53.302;5.786;2023-09-12T07:44:53;19.90;99.90
57242;DHT22;43095;53.302;5.786;2023-09-12T07:47:21;20.00;99.80
57242;DHT22;43095;53.302;5.786;2023-09-12T07:49:57;20.00;99.80
57242;DHT22;43095;53.302;5.786;2023-09-12T07:52:29;20.10;99.50
57242;DHT22;43095;53.302;5.786;2023-09-12T07:55:00;20.20;99.20
57242;DHT22;43095;53.302;5.786;2023-09-12T07:57:29;20.20;98.80
57242;DHT22;43095;53.302;5.786;2023-09-12T07:59:57;20.20;98.70
57242;DHT22;43095;53.302;5.786;2023-09-12T08:02:27;20.30;98.40
57242;DHT22;43095;53.302;5.786;2023-09-12T08:04:54;20.30;98.20
57242;DHT22;43095;53.302;5.786;2023-09-12T08:07:21;20.30;98.00
57242;DHT22;43095;53.302;5.786;2023-09-12T08:09:56;20.30;97.80
57242;DHT22;43095;53.302;5.786;2023-09-12T08:12:26;20.30;97.30
57242;DHT22;43095;53.302;5.786;2023-09-12T08:14:56;20.30;97.20
57242;DHT22;43095;53.302;5.786;2023-09-12T08:17:24;20.40;96.70
57242;DHT22;43095;53.302;5.786;2023-09-12T08:19:51;20.40;96.30
57242;DHT22;43095;53.302;5.786;2023-09-12T08:22:18;20.50;96.10
57242;DHT22;43095;53.302;5.786;2023-09-12T08:24:46;20.50;95.80
57242;DHT22;43095;53.302;5.786;2023-09-12T08:27:14;20.50;95.60
57242;DHT22;43095;53.302;5.786;2023-09-12T08:29:41;20.60;95.40
57242;DHT22;43095;53.302;5.786;2023-09-12T08:32:08;20.70;95.10
57242;DHT22;43095;53.302;5.786;2023-09-12T08:34:36;20.80;94.60
57242;DHT22;43095;53.302;5.786;2023-09-12T08:37:03;20.80;93.90
57242;DHT22;43095;53.302;5.786;2023-09-12T08:39:42;20.70;93.10
57242;DHT22;43095;53.302;5.786;2023-09-12T08:42:13;20.70;92.60
57242;DHT22;43095;53.302;5.786;2023-09-12T08:44:42;20.70;91.80
57242;DHT22;43095;53.302;5.786;2023-09-12T08:47:11;20.70;93.00
57242;DHT22;43095;53.302;5.786;2023-09-12T08:49:39;20.70;92.60
57242;DHT22;43095;53.302;5.786;2023-09-12T08:52:08;20.80;92.50
57242;DHT22;43095;53.302;5.786;2023-09-12T08:54:36;20.80;92.30
57242;DHT22;43095;53.302;5.786;2023-09-12T08:57:05;20.90;92.10
57242;DHT22;43095;53.302;5.786;2023-09-12T08:59:33;20.90;92.20
57242;DHT22;43095;53.302;5.786;2023-09-12T09:02:02;21.00;92.20
57242;DHT22;43095;53.302;5.786;2023-09-12T09:04:30;21.00;92.20
57242;DHT22;43095;53.302;5.786;2023-09-12T09:07:00;21.10;92.10
57242;DHT22;43095;53.302;5.786;2023-09-12T09:09:28;21.10;91.80
57242;DHT22;43095;53.302;5.786;2023-09-12T09:11:55;21.10;91.70
57242;DHT22;43095;53.302;5.786;2023-09-12T09:14:23;21.20;91.40
57242;DHT22;43095;53.302;5.786;2023-09-12T09:16:53;21.30;91.20
57242;DHT22;43095;53.302;5.786;2023-09-12T09:19:21;21.40;90.90
57242;DHT22;43095;53.302;5.786;2023-09-12T09:21:48;21.40;90.40
57242;DHT22;43095;53.302;5.786;2023-09-12T09:24:17;21.40;90.30
57242;DHT22;43095;53.302;5.786;2023-09-12T09:26:47;21.50;90.00
57242;DHT22;43095;53.302;5.786;2023-09-12T09:29:18;21.50;89.60
57242;DHT22;43095;53.302;5.786;2023-09-12T09:31:51;21.50;89.50
57242;DHT22;43095;53.302;5.786;2023-09-12T09:34:20;21.40;89.20
57242;DHT22;43095;53.302;5.786;2023-09-12T09:36:56;21.40;89.00
57242;DHT22;43095;53.302;5.786;2023-09-12T09:39:25;21.40;88.40
57242;DHT22;43095;53.302;5.786;2023-09-12T09:41:55;21.40;88.00
57242;DHT22;43095;53.302;5.786;2023-09-12T09:44:24;21.50;87.70
57242;DHT22;43095;53.302;5.786;2023-09-12T09:47:01;21.50;87.60
57242;DHT22;43095;53.302;5.786;2023-09-12T09:49:32;21.60;87.00
57242;DHT22;43095;53.302;5.786;2023-09-12T09:52:06;21.70;87.10
57242;DHT22;43095;53.302;5.786;2023-09-12T09:54:33;21.70;87.00
57242;DHT22;43095;53.302;5.786;2023-09-12T09:57:00;21.60;86.90
57242;DHT22;43095;53.302;5.786;2023-09-12T09:59:28;21.60;86.30
57242;DHT22;43095;53.302;5.786;2023-09-12T10:01:59;21.50;86.60
57242;DHT22;43095;53.302;5.786;2023-09-12T10:04:27;21.50;87.20
57242;DHT22;43095;53.302;5.786;2023-09-12T10:06:56;21.70;87.30
57242;DHT22;43095;53.302;5.786;2023-09-12T10:09:30;21.70;87.20
57242;DHT22;43095;53.302;5.786;2023-09-12T10:11:59;21.70;87.00
57242;DHT22;43095;53.302;5.786;2023-09-12T10:14:27;21.70;87.00
57242;DHT22;43095;53.302;5.786;2023-09-12T10:17:00;21.70;86.70
57242;DHT22;43095;53.302;5.786;2023-09-12T10:19:38;21.70;86.80
57242;DHT22;43095;53.302;5.786;2023-09-12T10:22:20;21.80;86.40
57242;DHT22;43095;53.302;5.786;2023-09-12T10:24:50;21.80;85.90
57242;DHT22;43095;53.302;5.786;2023-09-12T10:27:19;21.80;85.80
57242;DHT22;43095;53.302;5.786;2023-09-12T10:29:50;21.90;85.60
57242;DHT22;43095;53.302;5.786;2023-09-12T10:32:20;21.90;85.40
57242;DHT22;43095;53.302;5.786;2023-09-12T10:34:49;21.90;84.90
57242;DHT22;43095;53.302;5.786;2023-09-12T10:37:16;21.80;84.80
57242;DHT22;43095;53.302;5.786;2023-09-12T10:39:47;21.90;85.00
57242;DHT22;43095;53.302;5.786;2023-09-12T10:42:17;21.90;84.90
57242;DHT22;43095;53.302;5.786;2023-09-12T10:44:46;22.00;84.80
57242;DHT22;43095;53.302;5.786;2023-09-12T10:47:14;22.00;84.30
57242;DHT22;43095;53.302;5.786;2023-09-12T10:49:44;22.00;83.90
57242;DHT22;43095;53.302;5.786;2023-09-12T10:52:24;22.00;83.60
57242;DHT22;43095;53.302;5.786;2023-09-12T10:54:52;22.10;83.70
57242;DHT22;43095;53.302;5.786;2023-09-12T10:57:20;22.20;83.70
57242;DHT22;43095;53.302;5.786;2023-09-12T11:02:34;22.50;82.50
57242;DHT22;43095;53.302;5.786;2023-09-12T11:05:07;22.70;82.00
57242;DHT22;43095;53.302;5.786;2023-09-12T11:08:00;22.80;80.80
57242;DHT22;43095;53.302;5.786;2023-09-12T11:10:28;22.90;80.00
57242;DHT22;43095;53.302;5.786;2023-09-12T11:12:58;22.90;79.70
57242;DHT22;43095;53.302;5.786;2023-09-12T11:15:27;22.90;79.40
57242;DHT22;43095;53.302;5.786;2023-09-12T11:18:03;22.70;79.20
57242;DHT22;43095;53.302;5.786;2023-09-12T11:20:53;22.60;79.00
57242;DHT22;43095;53.302;5.786;2023-09-12T11:23:26;22.50;78.70
57242;DHT22;43095;53.302;5.786;2023-09-12T11:26:06;22.40;79.40
57242;DHT22;43095;53.302;5.786;2023-09-12T11:28:34;22.30;78.40
57242;DHT22;43095;53.302;5.786;2023-09-12T11:31:02;22.40;78.90
57242;DHT22;43095;53.302;5.786;2023-09-12T11:33:29;22.50;78.60
57242;DHT22;43095;53.302;5.786;2023-09-12T11:35:58;22.50;78.90
57242;DHT22;43095;53.302;5.786;2023-09-12T11:38:29;22.50;78.80
57242;DHT22;43095;53.302;5.786;2023-09-12T11:40:58;22.50;78.20
57242;DHT22;43095;53.302;5.786;2023-09-12T11:43:27;22.50;78.50
57242;DHT22;43095;53.302;5.786;2023-09-12T11:45:56;22.50;78.40
57242;DHT22;43095;53.302;5.786;2023-09-12T11:48:24;22.50;78.50
57242;DHT22;43095;53.302;5.786;2023-09-12T11:50:54;22.50;78.50
57242;DHT22;43095;53.302;5.786;2023-09-12T11:53:27;22.40;78.60
57242;DHT22;43095;53.302;5.786;2023-09-12T11:55:59;22.50;79.00
57242;DHT22;43095;53.302;5.786;2023-09-12T11:58:27;22.40;79.40
57242;DHT22;43095;53.302;5.786;2023-09-12T12:00:56;22.50;79.60
57242;DHT22;43095;53.302;5.786;2023-09-12T12:03:27;22.50;79.30
57242;DHT22;43095;53.302;5.786;2023-09-12T12:05:56;22.50;79.10
57242;DHT22;43095;53.302;5.786;2023-09-12T12:08:23;22.50;78.90
57242;DHT22;43095;53.302;5.786;2023-09-12T12:10:57;22.50;79.10
57242;DHT22;43095;53.302;5.786;2023-09-12T12:13:28;22.50;79.10
57242;DHT22;43095;53.302;5.786;2023-09-12T12:15:56;22.40;79.50
57242;DHT22;43095;53.302;5.786;2023-09-12T12:18:24;22.40;80.10
57242;DHT22;43095;53.302;5.786;2023-09-12T12:20:52;22.30;80.30
57242;DHT22;43095;53.302;5.786;2023-09-12T12:23:19;22.30;80.50
57242;DHT22;43095;53.302;5.786;2023-09-12T12:25:47;22.20;80.80
57242;DHT22;43095;53.302;5.786;2023-09-12T12:28:16;22.20;81.10
57242;DHT22;43095;53.302;5.786;2023-09-12T12:30:43;22.20;81.40
57242;DHT22;43095;53.302;5.786;2023-09-12T12:33:11;22.30;80.70
57242;DHT22;43095;53.302;5.786;2023-09-12T12:36:03;22.20;80.10
57242;DHT22;43095;53.302;5.786;2023-09-12T12:38:36;22.20;80.00
57242;DHT22;43095;53.302;5.786;2023-09-12T12:41:29;22.20;79.70
57242;DHT22;43095;53.302;5.786;2023-09-12T12:44:13;22.20;79.70
57242;DHT22;43095;53.302;5.786;2023-09-12T12:46:58;22.30;79.90
57242;DHT22;43095;53.302;5.786;2023-09-12T12:49:25;22.50;79.50
57242;DHT22;43095;53.302;5.786;2023-09-12T12:51:53;22.80;79.50
57242;DHT22;43095;53.302;5.786;2023-09-12T12:54:22;23.20;79.50
57242;DHT22;43095;53.302;5.786;2023-09-12T12:56:50;23.60;77.20
57242;DHT22;43095;53.302;5.786;2023-09-12T12:59:19;23.90;75.30
57242;DHT22;43095;53.302;5.786;2023-09-12T13:01:46;23.90;74.80
57242;DHT22;43095;53.302;5.786;2023-09-12T13:04:15;23.80;74.50
57242;DHT22;43095;53.302;5.786;2023-09-12T13:06:43;23.90;75.40
57242;DHT22;43095;53.302;5.786;2023-09-12T13:09:11;24.40;74.70
57242;DHT22;43095;53.302;5.786;2023-09-12T13:11:38;24.70;73.20
57242;DHT22;43095;53.302;5.786;2023-09-12T13:14:06;25.00;72.10
57242;DHT22;43095;53.302;5.786;2023-09-12T13:16:38;24.80;71.50
57242;DHT22;43095;53.302;5.786;2023-09-12T13:19:08;24.60;71.10
57242;DHT22;43095;53.302;5.786;2023-09-12T13:21:38;24.40;71.70
57242;DHT22;43095;53.302;5.786;2023-09-12T13:24:06;24.50;72.50
57242;DHT22;43095;53.302;5.786;2023-09-12T13:26:33;24.80;72.10
57242;DHT22;43095;53.302;5.786;2023-09-12T13:29:00;25.00;70.70
57242;DHT22;43095;53.302;5.786;2023-09-12T13:31:28;25.20;69.50
57242;DHT22;43095;53.302;5.786;2023-09-12T13:33:55;25.00;68.50
57242;DHT22;43095;53.302;5.786;2023-09-12T13:36:22;24.80;68.70
57242;DHT22;43095;53.302;5.786;2023-09-12T13:38:51;24.50;69.40
57242;DHT22;43095;53.302;5.786;2023-09-12T13:41:18;24.40;69.40
57242;DHT22;43095;53.302;5.786;2023-09-12T13:43:46;24.20;69.90
57242;DHT22;43095;53.302;5.786;2023-09-12T13:46:13;24.00;70.50
57242;DHT22;43095;53.302;5.786;2023-09-12T13:48:40;23.80;71.30
57242;DHT22;43095;53.302;5.786;2023-09-12T13:51:08;23.60;71.80
57242;DHT22;43095;53.302;5.786;2023-09-12T13:53:35;23.30;72.70
57242;DHT22;43095;53.302;5.786;2023-09-12T13:56:02;23.20;73.20
57242;DHT22;43095;53.302;5.786;2023-09-12T13:58:29;23.10;73.60
57242;DHT22;43095;53.302;5.786;2023-09-12T14:01:09;23.00;74.10
57242;DHT22;43095;53.302;5.786;2023-09-12T14:03:39;23.00;74.80
57242;DHT22;43095;53.302;5.786;2023-09-12T14:06:06;23.00;75.20
57242;DHT22;43095;53.302;5.786;2023-09-12T14:08:34;22.90;75.80
57242;DHT22;43095;53.302;5.786;2023-09-12T14:11:01;22.90;75.80
57242;DHT22;43095;53.302;5.786;2023-09-12T14:13:29;22.80;75.90
57242;DHT22;43095;53.302;5.786;2023-09-12T14:15:57;22.70;75.60
57242;DHT22;43095;53.302;5.786;2023-09-12T14:18:24;22.70;75.50
57242;DHT22;43095;53.302;5.786;2023-09-12T14:20:52;22.60;75.80
57242;DHT22;43095;53.302;5.786;2023-09-12T14:23:20;22.50;75.80
57242;DHT22;43095;53.302;5.786;2023-09-12T14:25:48;22.50;76.10
57242;DHT22;43095;53.302;5.786;2023-09-12T14:28:16;22.50;76.30
57242;DHT22;43095;53.302;5.786;2023-09-12T14:30:45;22.60;76.60
57242;DHT22;43095;53.302;5.786;2023-09-12T14:33:13;22.80;76.30
57242;DHT22;43095;53.302;5.786;2023-09-12T14:35:44;22.90;75.80
57242;DHT22;43095;53.302;5.786;2023-09-12T14:38:12;22.90;75.10
57242;DHT22;43095;53.302;5.786;2023-09-12T14:40:39;22.80;75.10
57242;DHT22;43095;53.302;5.786;2023-09-12T14:43:10;22.70;75.00
57242;DHT22;43095;53.302;5.786;2023-09-12T14:45:38;22.60;75.10
57242;DHT22;43095;53.302;5.786;2023-09-12T14:48:06;22.60;74.70
57242;DHT22;43095;53.302;5.786;2023-09-12T14:50:34;22.50;74.70
57242;DHT22;43095;53.302;5.786;2023-09-12T14:53:10;22.30;75.10
57242;DHT22;43095;53.302;5.786;2023-09-12T14:55:39;22.30;75.40
57242;DHT22;43095;53.302;5.786;2023-09-12T14:58:06;22.30;75.90
57242;DHT22;43095;53.302;5.786;2023-09-12T15:00:34;22.60;75.70
57242;DHT22;43095;53.302;5.786;2023-09-12T15:03:02;22.80;75.10
57242;DHT22;43095;53.302;5.786;2023-09-12T15:05:29;23.00;74.30
57242;DHT22;43095;53.302;5.786;2023-09-12T15:07:56;23.10;73.70
57242;DHT22;43095;53.302;5.786;2023-09-12T15:10:24;23.10;73.10
57242;DHT22;43095;53.302;5.786;2023-09-12T15:12:51;22.90;73.20
57242;DHT22;43095;53.302;5.786;2023-09-12T15:15:18;22.80;73.90
57242;DHT22;43095;53.302;5.786;2023-09-12T15:17:46;22.80;74.00
57242;DHT22;43095;53.302;5.786;2023-09-12T15:20:13;22.70;74.10
57242;DHT22;43095;53.302;5.786;2023-09-12T15:22:40;22.50;74.80
57242;DHT22;43095;53.302;5.786;2023-09-12T15:25:10;22.20;75.50
57242;DHT22;43095;53.302;5.786;2023-09-12T15:27:37;22.00;76.20
57242;DHT22;43095;53.302;5.786;2023-09-12T15:30:05;21.90;76.90
57242;DHT22;43095;53.302;5.786;2023-09-12T15:32:33;21.70;77.80
57242;DHT22;43095;53.302;5.786;2023-09-12T15:35:00;21.50;78.50
57242;DHT22;43095;53.302;5.786;2023-09-12T15:37:29;21.40;78.70
57242;DHT22;43095;53.302;5.786;2023-09-12T15:39:57;21.10;79.20
57242;DHT22;43095;53.302;5.786;2023-09-12T15:42:24;21.10;79.80
57242;DHT22;43095;53.302;5.786;2023-09-12T15:45:03;21.10;79.70
57242;DHT22;43095;53.302;5.786;2023-09-12T15:47:31;21.10;80.10
57242;DHT22;43095;53.302;5.786;2023-09-12T15:49:59;21.50;79.50